Bearsville, NY (12409)

9:29 PM EDT on August 30, 2015 (GMT -0400)
Overlook Mountain | | Change Station
CLOSE
Current Station
Personal Weather Station
Location: Woodstock, NY
Elevation: 1407 ft
Nearby Weather Stations

Elev 1407 ft 42.06 °N, 74.12 °W | Updated 10 minutes ago

Partly Cloudy
Partly Cloudy
71.6 °F
Feels Like 71 °F
N
0.0
Wind Variable Wind from SSE

Today
High -- | Low -- °F
--% Chance of Precip.
Yesterday
High -- | Low -- °F
Precip. -- in
6:19 AM 7:34 PM
Full, 98% visible
Pressure 30.01 in
Visibility 5.0 miles
Clouds Clear
Heat Index 71 °F
Dew Point 66 °F
Humidity 82%
Rainfall 0.00 in
Snow Depth Not available.
UV 0 out of 12
Pollen 9.20 out of 12
Air Quality Not available.
Flu Activity Not available.
METAR KPOU 310053Z 00000KT 5SM BR CLR 22/21 A3002 RMK AO2 SLP162 T02220211
Pressure 30.01 in
Visibility 5.0 miles
Clouds Clear
Heat Index 71 °F
Dew Point 66 °F
Humidity 82%
Rainfall 0.00 in
Snow Depth Not available.
UV 0 out of 12
Pollen 9.20 out of 12
Air Quality Not available.
Flu Activity Not available.
METAR KPOU 310053Z 00000KT 5SM BR CLR 22/21 A3002 RMK AO2 SLP162 T02220211

10-Day Weather Forecast

×

Almanac

Astronomy

Aug. 30, 2015 Rise Set
Actual Time
Civil Twilight
Nautical Twilight
Astronomical Twilight
Moon
Length of Visible Light
Length of Day
Tomorrow will be .
, % of the Moon is Illuminated

Today's Extremes

State Highs State Lows

Community

WunderPhotos

Upload Photos

1,851,130 photos uploaded!

WunderBlogs® & News

Nearby

Air Quality

  Air Quality AQ Index Pollutant
Not available.

Snow Depth

Station Depth Elevation

Earthquake Activity

City Distance Mag. Time & Date
Minimum magnitude displayed is 2.5.

Coastal Water Temperatures

Place Temperature

Stations

Nearby Weather Stations

Station Location Temp. Windchill Dew Point Humidity Wind Precip. Elev Updated Type